sensor_id;sensor_type;location;lat;lon;timestamp;temperature;humidity
57652;DHT22;43480;53.116;6.734;2023-04-03T00:00:45;3.10;99.90
57652;DHT22;43480;53.116;6.734;2023-04-03T00:03:10;3.00;99.90
57652;DHT22;43480;53.116;6.734;2023-04-03T00:05:36;2.90;99.90
57652;DHT22;43480;53.116;6.734;2023-04-03T00:08:02;2.90;99.90
57652;DHT22;43480;53.116;6.734;2023-04-03T00:10:28;2.80;99.90
57652;DHT22;43480;53.116;6.734;2023-04-03T00:12:53;2.90;99.90
57652;DHT22;43480;53.116;6.734;2023-04-03T00:15:19;2.90;99.90
57652;DHT22;43480;53.116;6.734;2023-04-03T00:17:44;2.80;99.90
57652;DHT22;43480;53.116;6.734;2023-04-03T00:20:11;2.80;99.90
57652;DHT22;43480;53.116;6.734;2023-04-03T00:22:36;2.70;99.90
57652;DHT22;43480;53.116;6.734;2023-04-03T00:25:02;2.70;99.90
57652;DHT22;43480;53.116;6.734;2023-04-03T00:27:28;2.70;99.90
57652;DHT22;43480;53.116;6.734;2023-04-03T00:29:53;2.70;99.90
57652;DHT22;43480;53.116;6.734;2023-04-03T00:32:19;2.70;99.90
57652;DHT22;43480;53.116;6.734;2023-04-03T00:34:44;2.60;99.90
57652;DHT22;43480;53.116;6.734;2023-04-03T00:37:10;2.60;99.90
57652;DHT22;43480;53.116;6.734;2023-04-03T00:39:36;2.50;99.90
57652;DHT22;43480;53.116;6.734;2023-04-03T00:42:01;2.50;99.90
57652;DHT22;43480;53.116;6.734;2023-04-03T00:46:52;2.40;99.90
57652;DHT22;43480;53.116;6.734;2023-04-03T00:49:18;2.50;99.90
57652;DHT22;43480;53.116;6.734;2023-04-03T00:51:43;2.40;99.90
57652;DHT22;43480;53.116;6.734;2023-04-03T00:54:09;2.40;99.90
57652;DHT22;43480;53.116;6.734;2023-04-03T00:56:35;2.40;99.90
57652;DHT22;43480;53.116;6.734;2023-04-03T00:59:20;2.40;99.90
57652;DHT22;43480;53.116;6.734;2023-04-03T01:01:48;2.30;99.90
57652;DHT22;43480;53.116;6.734;2023-04-03T01:07:00;2.20;99.90
57652;DHT22;43480;53.116;6.734;2023-04-03T01:09:26;2.10;99.90
57652;DHT22;43480;53.116;6.734;2023-04-03T01:11:51;2.00;99.90
57652;DHT22;43480;53.116;6.734;2023-04-03T01:14:17;2.10;99.90
57652;DHT22;43480;53.116;6.734;2023-04-03T01:16:43;2.00;99.90
57652;DHT22;43480;53.116;6.734;2023-04-03T01:19:10;2.00;99.90
57652;DHT22;43480;53.116;6.734;2023-04-03T01:26:49;1.90;99.90
57652;DHT22;43480;53.116;6.734;2023-04-03T01:29:15;1.90;99.90
57652;DHT22;43480;53.116;6.734;2023-04-03T01:31:46;1.90;99.90
57652;DHT22;43480;53.116;6.734;2023-04-03T01:34:11;1.90;99.90
57652;DHT22;43480;53.116;6.734;2023-04-03T01:36:37;1.90;99.90
57652;DHT22;43480;53.116;6.734;2023-04-03T01:39:02;1.80;99.90
57652;DHT22;43480;53.116;6.734;2023-04-03T01:41:28;1.80;99.90
57652;DHT22;43480;53.116;6.734;2023-04-03T01:43:54;1.80;99.90
57652;DHT22;43480;53.116;6.734;2023-04-03T01:46:19;1.70;99.90
57652;DHT22;43480;53.116;6.734;2023-04-03T01:48:45;1.70;99.90
57652;DHT22;43480;53.116;6.734;2023-04-03T01:51:11;1.60;99.90
57652;DHT22;43480;53.116;6.734;2023-04-03T01:53:36;1.60;99.90
57652;DHT22;43480;53.116;6.734;2023-04-03T01:56:02;1.60;99.90
57652;DHT22;43480;53.116;6.734;2023-04-03T01:58:28;1.60;99.90
57652;DHT22;43480;53.116;6.734;2023-04-03T02:00:53;1.60;99.90
57652;DHT22;43480;53.116;6.734;2023-04-03T02:03:19;1.50;99.90
57652;DHT22;43480;53.116;6.734;2023-04-03T02:05:45;1.50;99.90
57652;DHT22;43480;53.116;6.734;2023-04-03T02:08:11;1.40;99.90
57652;DHT22;43480;53.116;6.734;2023-04-03T02:10:36;1.40;99.90
57652;DHT22;43480;53.116;6.734;2023-04-03T02:13:02;1.40;99.90
57652;DHT22;43480;53.116;6.734;2023-04-03T02:15:28;1.40;99.90
57652;DHT22;43480;53.116;6.734;2023-04-03T02:17:53;1.30;99.90
57652;DHT22;43480;53.116;6.734;2023-04-03T02:20:19;1.30;99.90
57652;DHT22;43480;53.116;6.734;2023-04-03T02:22:45;1.30;99.90
57652;DHT22;43480;53.116;6.734;2023-04-03T02:25:10;1.30;99.90
57652;DHT22;43480;53.116;6.734;2023-04-03T02:27:36;1.30;99.90
57652;DHT22;43480;53.116;6.734;2023-04-03T02:30:02;1.30;99.90
57652;DHT22;43480;53.116;6.734;2023-04-03T02:32:28;1.30;99.90
57652;DHT22;43480;53.116;6.734;2023-04-03T02:34:54;1.30;99.90
57652;DHT22;43480;53.116;6.734;2023-04-03T02:37:19;1.20;99.90
57652;DHT22;43480;53.116;6.734;2023-04-03T02:39:46;1.20;99.90
57652;DHT22;43480;53.116;6.734;2023-04-03T02:42:11;1.20;99.90
57652;DHT22;43480;53.116;6.734;2023-04-03T02:44:37;1.20;99.90
57652;DHT22;43480;53.116;6.734;2023-04-03T02:47:02;1.10;99.90
57652;DHT22;43480;53.116;6.734;2023-04-03T02:49:28;1.10;99.90
57652;DHT22;43480;53.116;6.734;2023-04-03T02:51:53;1.10;99.90
57652;DHT22;43480;53.116;6.734;2023-04-03T02:54:19;1.10;99.90
57652;DHT22;43480;53.116;6.734;2023-04-03T02:56:45;1.00;99.90
57652;DHT22;43480;53.116;6.734;2023-04-03T02:59:10;1.00;99.90
57652;DHT22;43480;53.116;6.734;2023-04-03T03:01:36;0.90;99.90
57652;DHT22;43480;53.116;6.734;2023-04-03T03:04:01;0.90;99.90
57652;DHT22;43480;53.116;6.734;2023-04-03T03:06:27;0.80;99.90
57652;DHT22;43480;53.116;6.734;2023-04-03T03:08:52;0.80;99.90
57652;DHT22;43480;53.116;6.734;2023-04-03T03:11:18;0.80;99.90
57652;DHT22;43480;53.116;6.734;2023-04-03T03:13:44;0.80;99.90
57652;DHT22;43480;53.116;6.734;2023-04-03T03:16:10;0.80;99.90
57652;DHT22;43480;53.116;6.734;2023-04-03T03:18:35;0.80;99.90
57652;DHT22;43480;53.116;6.734;2023-04-03T03:21:01;0.80;99.90
57652;DHT22;43480;53.116;6.734;2023-04-03T03:23:28;0.70;99.90
57652;DHT22;43480;53.116;6.734;2023-04-03T03:25:57;0.70;99.90
57652;DHT22;43480;53.116;6.734;2023-04-03T03:28:23;0.60;99.90
57652;DHT22;43480;53.116;6.734;2023-04-03T03:30:49;0.60;99.90
57652;DHT22;43480;53.116;6.734;2023-04-03T03:33:14;0.60;99.90
57652;DHT22;43480;53.116;6.734;2023-04-03T03:35:41;0.80;99.90
57652;DHT22;43480;53.116;6.734;2023-04-03T03:38:07;0.80;99.90
57652;DHT22;43480;53.116;6.734;2023-04-03T03:40:32;0.80;99.90
57652;DHT22;43480;53.116;6.734;2023-04-03T03:42:58;0.90;99.90
57652;DHT22;43480;53.116;6.734;2023-04-03T03:45:23;0.90;99.90
57652;DHT22;43480;53.116;6.734;2023-04-03T03:47:49;0.90;99.90
57652;DHT22;43480;53.116;6.734;2023-04-03T03:50:14;0.90;99.90
57652;DHT22;43480;53.116;6.734;2023-04-03T03:52:40;0.90;99.90
57652;DHT22;43480;53.116;6.734;2023-04-03T03:55:06;0.90;99.90
57652;DHT22;43480;53.116;6.734;2023-04-03T03:57:31;1.00;99.90
57652;DHT22;43480;53.116;6.734;2023-04-03T03:59:57;1.00;99.90
57652;DHT22;43480;53.116;6.734;2023-04-03T04:02:23;1.10;99.90
57652;DHT22;43480;53.116;6.734;2023-04-03T04:04:48;1.00;99.90
57652;DHT22;43480;53.116;6.734;2023-04-03T04:07:14;1.00;99.90
57652;DHT22;43480;53.116;6.734;2023-04-03T04:09:39;1.00;99.90
57652;DHT22;43480;53.116;6.734;2023-04-03T04:12:05;0.90;99.90
57652;DHT22;43480;53.116;6.734;2023-04-03T04:14:31;0.90;99.90
57652;DHT22;43480;53.116;6.734;2023-04-03T04:16:56;0.80;99.90
57652;DHT22;43480;53.116;6.734;2023-04-03T04:19:22;0.70;99.90
57652;DHT22;43480;53.116;6.734;2023-04-03T04:21:47;0.70;99.90
57652;DHT22;43480;53.116;6.734;2023-04-03T04:24:13;0.60;99.90
57652;DHT22;43480;53.116;6.734;2023-04-03T04:26:39;0.70;99.90
57652;DHT22;43480;53.116;6.734;2023-04-03T04:29:04;0.70;99.90
57652;DHT22;43480;53.116;6.734;2023-04-03T04:31:30;0.70;99.90
57652;DHT22;43480;53.116;6.734;2023-04-03T04:33:55;0.70;99.90
57652;DHT22;43480;53.116;6.734;2023-04-03T04:36:21;0.70;99.90
57652;DHT22;43480;53.116;6.734;2023-04-03T04:38:46;0.70;99.90
57652;DHT22;43480;53.116;6.734;2023-04-03T04:41:12;0.70;99.90
57652;DHT22;43480;53.116;6.734;2023-04-03T04:43:37;0.70;99.90
57652;DHT22;43480;53.116;6.734;2023-04-03T04:46:04;0.60;99.90
57652;DHT22;43480;53.116;6.734;2023-04-03T04:48:30;0.50;99.90
57652;DHT22;43480;53.116;6.734;2023-04-03T04:50:56;0.50;99.90
57652;DHT22;43480;53.116;6.734;2023-04-03T04:53:21;0.40;99.90
57652;DHT22;43480;53.116;6.734;2023-04-03T04:55:47;0.40;99.90
57652;DHT22;43480;53.116;6.734;2023-04-03T04:58:13;0.40;99.90
57652;DHT22;43480;53.116;6.734;2023-04-03T05:00:38;0.30;99.90
57652;DHT22;43480;53.116;6.734;2023-04-03T05:03:04;0.30;99.90
57652;DHT22;43480;53.116;6.734;2023-04-03T05:05:30;0.20;99.90
57652;DHT22;43480;53.116;6.734;2023-04-03T05:07:55;0.30;99.90
57652;DHT22;43480;53.116;6.734;2023-04-03T05:10:21;0.30;99.90
57652;DHT22;43480;53.116;6.734;2023-04-03T05:12:46;0.20;99.90
57652;DHT22;43480;53.116;6.734;2023-04-03T05:15:12;0.30;99.90
57652;DHT22;43480;53.116;6.734;2023-04-03T05:17:37;0.30;99.90
57652;DHT22;43480;53.116;6.734;2023-04-03T05:20:03;0.40;99.90
57652;DHT22;43480;53.116;6.734;2023-04-03T05:22:29;0.40;99.90
57652;DHT22;43480;53.116;6.734;2023-04-03T05:24:55;0.30;99.90
57652;DHT22;43480;53.116;6.734;2023-04-03T05:27:21;0.30;99.90
57652;DHT22;43480;53.116;6.734;2023-04-03T05:29:46;0.40;99.90
57652;DHT22;43480;53.116;6.734;2023-04-03T05:32:12;0.40;99.90
57652;DHT22;43480;53.116;6.734;2023-04-03T05:34:37;0.40;99.90
57652;DHT22;43480;53.116;6.734;2023-04-03T05:37:03;0.40;99.90
57652;DHT22;43480;53.116;6.734;2023-04-03T05:39:30;0.50;99.90
57652;DHT22;43480;53.116;6.734;2023-04-03T05:41:57;0.50;99.90
57652;DHT22;43480;53.116;6.734;2023-04-03T05:44:22;0.60;99.90
57652;DHT22;43480;53.116;6.734;2023-04-03T05:46:48;0.60;99.90
57652;DHT22;43480;53.116;6.734;2023-04-03T05:49:13;0.70;99.90
57652;DHT22;43480;53.116;6.734;2023-04-03T05:51:39;0.70;99.90
57652;DHT22;43480;53.116;6.734;2023-04-03T05:54:12;0.70;99.90
57652;DHT22;43480;53.116;6.734;2023-04-03T05:56:38;0.80;99.90
57652;DHT22;43480;53.116;6.734;2023-04-03T05:59:04;0.80;99.90
57652;DHT22;43480;53.116;6.734;2023-04-03T06:01:30;0.90;99.90
57652;DHT22;43480;53.116;6.734;2023-04-03T06:03:56;0.90;99.90
57652;DHT22;43480;53.116;6.734;2023-04-03T06:06:23;0.90;99.90
57652;DHT22;43480;53.116;6.734;2023-04-03T06:08:49;1.00;99.90
57652;DHT22;43480;53.116;6.734;2023-04-03T06:11:15;1.10;99.90
57652;DHT22;43480;53.116;6.734;2023-04-03T06:13:41;1.10;99.90
57652;DHT22;43480;53.116;6.734;2023-04-03T06:16:08;1.10;99.90
57652;DHT22;43480;53.116;6.734;2023-04-03T06:18:34;1.20;99.90
57652;DHT22;43480;53.116;6.734;2023-04-03T06:21:00;1.20;99.90
57652;DHT22;43480;53.116;6.734;2023-04-03T06:23:27;1.30;99.90
57652;DHT22;43480;53.116;6.734;2023-04-03T06:25:53;1.30;99.90
57652;DHT22;43480;53.116;6.734;2023-04-03T06:28:19;1.40;99.90
57652;DHT22;43480;53.116;6.734;2023-04-03T06:30:45;1.40;99.90
57652;DHT22;43480;53.116;6.734;2023-04-03T06:33:11;1.50;99.90
57652;DHT22;43480;53.116;6.734;2023-04-03T06:35:36;1.50;99.90
57652;DHT22;43480;53.116;6.734;2023-04-03T06:38:03;1.50;99.90
57652;DHT22;43480;53.116;6.734;2023-04-03T06:40:34;1.40;99.90
57652;DHT22;43480;53.116;6.734;2023-04-03T06:43:00;1.50;99.90
57652;DHT22;43480;53.116;6.734;2023-04-03T06:45:25;1.60;99.90
57652;DHT22;43480;53.116;6.734;2023-04-03T06:47:51;1.70;99.90
57652;DHT22;43480;53.116;6.734;2023-04-03T06:50:16;1.70;99.90
57652;DHT22;43480;53.116;6.734;2023-04-03T06:52:42;1.80;99.90
57652;DHT22;43480;53.116;6.734;2023-04-03T06:55:08;1.80;99.90
57652;DHT22;43480;53.116;6.734;2023-04-03T06:57:34;1.90;99.90
57652;DHT22;43480;53.116;6.734;2023-04-03T07:00:00;1.90;99.90
57652;DHT22;43480;53.116;6.734;2023-04-03T07:02:26;2.00;99.90
57652;DHT22;43480;53.116;6.734;2023-04-03T07:04:51;2.00;99.90
57652;DHT22;43480;53.116;6.734;2023-04-03T07:07:17;2.00;99.90
57652;DHT22;43480;53.116;6.734;2023-04-03T07:09:43;2.10;99.90
57652;DHT22;43480;53.116;6.734;2023-04-03T07:12:08;2.10;99.90
57652;DHT22;43480;53.116;6.734;2023-04-03T07:14:34;2.20;99.90
57652;DHT22;43480;53.116;6.734;2023-04-03T07:17:00;2.30;99.90
57652;DHT22;43480;53.116;6.734;2023-04-03T07:19:25;2.40;99.90
57652;DHT22;43480;53.116;6.734;2023-04-03T07:21:53;2.40;99.90
57652;DHT22;43480;53.116;6.734;2023-04-03T07:24:19;2.50;99.90
57652;DHT22;43480;53.116;6.734;2023-04-03T07:26:44;2.60;99.90
57652;DHT22;43480;53.116;6.734;2023-04-03T07:29:13;2.70;99.90
57652;DHT22;43480;53.116;6.734;2023-04-03T07:31:39;2.80;99.90
57652;DHT22;43480;53.116;6.734;2023-04-03T07:34:06;2.90;99.90
57652;DHT22;43480;53.116;6.734;2023-04-03T07:36:32;3.00;99.90
57652;DHT22;43480;53.116;6.734;2023-04-03T07:38:58;3.00;99.90
57652;DHT22;43480;53.116;6.734;2023-04-03T07:41:24;3.20;99.90
57652;DHT22;43480;53.116;6.734;2023-04-03T07:43:49;3.20;99.90
57652;DHT22;43480;53.116;6.734;2023-04-03T07:46:15;3.30;99.90
57652;DHT22;43480;53.116;6.734;2023-04-03T07:48:41;3.40;99.90
57652;DHT22;43480;53.116;6.734;2023-04-03T07:51:06;3.40;99.90
57652;DHT22;43480;53.116;6.734;2023-04-03T07:53:32;3.50;99.90
57652;DHT22;43480;53.116;6.734;2023-04-03T07:55:58;3.60;99.90
57652;DHT22;43480;53.116;6.734;2023-04-03T07:58:24;3.70;99.90
57652;DHT22;43480;53.116;6.734;2023-04-03T08:00:51;3.80;99.90
57652;DHT22;43480;53.116;6.734;2023-04-03T08:03:17;3.80;99.90
57652;DHT22;43480;53.116;6.734;2023-04-03T08:05:46;3.90;99.90
57652;DHT22;43480;53.116;6.734;2023-04-03T08:08:13;3.90;99.90
57652;DHT22;43480;53.116;6.734;2023-04-03T08:10:39;4.00;99.90
57652;DHT22;43480;53.116;6.734;2023-04-03T08:13:05;4.00;99.90
57652;DHT22;43480;53.116;6.734;2023-04-03T08:15:31;4.10;99.90
57652;DHT22;43480;53.116;6.734;2023-04-03T08:17:56;4.20;99.90
57652;DHT22;43480;53.116;6.734;2023-04-03T08:20:22;4.20;99.90
57652;DHT22;43480;53.116;6.734;2023-04-03T08:22:48;4.20;99.90
57652;DHT22;43480;53.116;6.734;2023-04-03T08:25:13;4.30;99.90
57652;DHT22;43480;53.116;6.734;2023-04-03T08:27:39;4.40;99.90
57652;DHT22;43480;53.116;6.734;2023-04-03T08:30:05;4.50;99.90
57652;DHT22;43480;53.116;6.734;2023-04-03T08:32:33;4.50;99.90
57652;DHT22;43480;53.116;6.734;2023-04-03T08:34:58;4.50;99.90
57652;DHT22;43480;53.116;6.734;2023-04-03T08:37:24;4.60;99.90
57652;DHT22;43480;53.116;6.734;2023-04-03T08:39:50;4.70;99.90
57652;DHT22;43480;53.116;6.734;2023-04-03T08:44:47;4.80;99.90
57652;DHT22;43480;53.116;6.734;2023-04-03T08:49:49;4.90;99.90
57652;DHT22;43480;53.116;6.734;2023-04-03T08:52:17;5.10;99.90
57652;DHT22;43480;53.116;6.734;2023-04-03T08:54:57;5.20;99.90
57652;DHT22;43480;53.116;6.734;2023-04-03T08:57:29;5.30;99.90
57652;DHT22;43480;53.116;6.734;2023-04-03T08:59:57;5.40;99.90
57652;DHT22;43480;53.116;6.734;2023-04-03T09:02:24;5.40;99.90
57652;DHT22;43480;53.116;6.734;2023-04-03T09:04:52;5.40;99.90
57652;DHT22;43480;53.116;6.734;2023-04-03T09:07:21;5.50;99.90
57652;DHT22;43480;53.116;6.734;2023-04-03T09:09:47;5.50;99.90
57652;DHT22;43480;53.116;6.734;2023-04-03T09:12:27;5.60;99.90
57652;DHT22;43480;53.116;6.734;2023-04-03T09:14:57;5.70;99.90
57652;DHT22;43480;53.116;6.734;2023-04-03T09:17:35;5.90;99.90
57652;DHT22;43480;53.116;6.734;2023-04-03T09:22:38;6.10;99.90
57652;DHT22;43480;53.116;6.734;2023-04-03T09:25:20;6.10;99.90
57652;DHT22;43480;53.116;6.734;2023-04-03T09:27:46;6.10;99.90
57652;DHT22;43480;53.116;6.734;2023-04-03T09:30:13;6.20;99.90
57652;DHT22;43480;53.116;6.734;2023-04-03T09:32:39;6.20;99.90
57652;DHT22;43480;53.116;6.734;2023-04-03T09:35:16;6.30;99.90
57652;DHT22;43480;53.116;6.734;2023-04-03T09:37:44;6.40;99.90
57652;DHT22;43480;53.116;6.734;2023-04-03T09:40:33;6.50;99.90
57652;DHT22;43480;53.116;6.734;2023-04-03T09:43:00;6.60;99.90
57652;DHT22;43480;53.116;6.734;2023-04-03T09:45:30;6.70;99.90
57652;DHT22;43480;53.116;6.734;2023-04-03T09:50:38;6.90;99.90
57652;DHT22;43480;53.116;6.734;2023-04-03T09:53:06;7.10;99.90
57652;DHT22;43480;53.116;6.734;2023-04-03T09:55:33;7.10;91.30
57652;DHT22;43480;53.116;6.734;2023-04-03T09:58:21;7.20;92.20
57652;DHT22;43480;53.116;6.734;2023-04-03T10:00:53;7.30;85.20
57652;DHT22;43480;53.116;6.734;2023-04-03T10:03:27;7.40;82.70
57652;DHT22;43480;53.116;6.734;2023-04-03T10:05:53;7.40;80.40
57652;DHT22;43480;53.116;6.734;2023-04-03T10:08:22;7.50;77.30
57652;DHT22;43480;53.116;6.734;2023-04-03T10:11:04;7.60;78.10
57652;DHT22;43480;53.116;6.734;2023-04-03T10:13:30;7.60;76.90
57652;DHT22;43480;53.116;6.734;2023-04-03T10:15:59;7.70;76.10
57652;DHT22;43480;53.116;6.734;2023-04-03T10:21:15;8.00;78.50
57652;DHT22;43480;53.116;6.734;2023-04-03T10:23:46;8.10;74.60
57652;DHT22;43480;53.116;6.734;2023-04-03T10:54:45;9.30;74.70
57652;DHT22;43480;53.116;6.734;2023-04-03T10:57:12;9.40;71.40
57652;DHT22;43480;53.116;6.734;2023-04-03T11:04:51;9.70;72.00
57652;DHT22;43480;53.116;6.734;2023-04-03T11:07:20;9.80;71.30
57652;DHT22;43480;53.116;6.734;2023-04-03T11:09:48;10.00;70.20
57652;DHT22;43480;53.116;6.734;2023-04-03T11:12:18;10.00;74.30
57652;DHT22;43480;53.116;6.734;2023-04-03T11:14:44;10.20;75.90
57652;DHT22;43480;53.116;6.734;2023-04-03T11:22:29;10.30;72.70
57652;DHT22;43480;53.116;6.734;2023-04-03T11:24:59;10.50;75.10
57652;DHT22;43480;53.116;6.734;2023-04-03T11:27:27;10.60;73.70
57652;DHT22;43480;53.116;6.734;2023-04-03T11:29:57;10.70;72.10
57652;DHT22;43480;53.116;6.734;2023-04-03T11:34:49;10.80;69.30
57652;DHT22;43480;53.116;6.734;2023-04-03T11:37:36;10.90;70.10
57652;DHT22;43480;53.116;6.734;2023-04-03T11:40:04;11.10;71.10
57652;DHT22;43480;53.116;6.734;2023-04-03T11:42:39;11.30;69.40
57652;DHT22;43480;53.116;6.734;2023-04-03T11:50:31;12.10;68.60
57652;DHT22;43480;53.116;6.734;2023-04-03T12:05:47;12.80;66.90
57652;DHT22;43480;53.116;6.734;2023-04-03T12:08:26;13.10;67.00
57652;DHT22;43480;53.116;6.734;2023-04-03T12:16:18;12.90;61.40
57652;DHT22;43480;53.116;6.734;2023-04-03T12:21:18;13.00;65.30
57652;DHT22;43480;53.116;6.734;2023-04-03T12:37:05;13.70;64.80
57652;DHT22;43480;53.116;6.734;2023-04-03T12:39:50;13.80;61.80
57652;DHT22;43480;53.116;6.734;2023-04-03T12:42:34;13.70;58.30
57652;DHT22;43480;53.116;6.734;2023-04-03T12:47:33;13.50;61.10
57652;DHT22;43480;53.116;6.734;2023-04-03T12:50:02;13.40;59.40
57652;DHT22;43480;53.116;6.734;2023-04-03T12:52:30;13.30;57.90
57652;DHT22;43480;53.116;6.734;2023-04-03T12:54:57;13.40;59.60
57652;DHT22;43480;53.116;6.734;2023-04-03T12:57:24;13.40;58.20
57652;DHT22;43480;53.116;6.734;2023-04-03T12:59:50;13.20;57.90
57652;DHT22;43480;53.116;6.734;2023-04-03T13:02:26;13.40;62.80
57652;DHT22;43480;53.116;6.734;2023-04-03T13:04:53;13.70;63.40
57652;DHT22;43480;53.116;6.734;2023-04-03T13:07:23;14.00;61.20
57652;DHT22;43480;53.116;6.734;2023-04-03T13:10:09;14.20;62.10
57652;DHT22;43480;53.116;6.734;2023-04-03T13:12:51;14.20;58.50
57652;DHT22;43480;53.116;6.734;2023-04-03T13:15:19;14.40;63.70
57652;DHT22;43480;53.116;6.734;2023-04-03T13:17:44;14.40;58.00
57652;DHT22;43480;53.116;6.734;2023-04-03T13:20:12;14.50;59.70
57652;DHT22;43480;53.116;6.734;2023-04-03T13:22:59;14.60;59.30
57652;DHT22;43480;53.116;6.734;2023-04-03T13:25:24;14.50;61.10
57652;DHT22;43480;53.116;6.734;2023-04-03T13:27:50;14.50;64.60
57652;DHT22;43480;53.116;6.734;2023-04-03T13:30:20;14.60;61.30
57652;DHT22;43480;53.116;6.734;2023-04-03T13:32:46;14.70;59.50
57652;DHT22;43480;53.116;6.734;2023-04-03T13:35:28;14.60;59.00
57652;DHT22;43480;53.116;6.734;2023-04-03T13:37:58;14.70;60.80
57652;DHT22;43480;53.116;6.734;2023-04-03T13:40:25;14.90;58.70
57652;DHT22;43480;53.116;6.734;2023-04-03T13:43:01;15.20;58.50
57652;DHT22;43480;53.116;6.734;2023-04-03T13:45:27;15.50;58.10
57652;DHT22;43480;53.116;6.734;2023-04-03T13:48:06;15.70;57.70
57652;DHT22;43480;53.116;6.734;2023-04-03T13:50:32;15.80;55.80
57652;DHT22;43480;53.116;6.734;2023-04-03T13:53:02;15.90;54.20
57652;DHT22;43480;53.116;6.734;2023-04-03T13:55:30;15.80;54.20
57652;DHT22;43480;53.116;6.734;2023-04-03T13:58:00;15.80;56.20
57652;DHT22;43480;53.116;6.734;2023-04-03T14:02:58;16.00;57.40
57652;DHT22;43480;53.116;6.734;2023-04-03T14:05:24;16.10;58.90
57652;DHT22;43480;53.116;6.734;2023-04-03T14:07:51;16.20;57.80
57652;DHT22;43480;53.116;6.734;2023-04-03T14:10:16;16.30;56.30
57652;DHT22;43480;53.116;6.734;2023-04-03T14:12:42;16.30;56.20
57652;DHT22;43480;53.116;6.734;2023-04-03T14:15:16;16.40;56.70
57652;DHT22;43480;53.116;6.734;2023-04-03T14:17:43;16.60;55.30
57652;DHT22;43480;53.116;6.734;2023-04-03T14:20:16;16.80;54.40
57652;DHT22;43480;53.116;6.734;2023-04-03T14:22:41;16.80;55.40
57652;DHT22;43480;53.116;6.734;2023-04-03T14:25:07;17.00;54.70
57652;DHT22;43480;53.116;6.734;2023-04-03T14:27:34;17.20;57.00
57652;DHT22;43480;53.116;6.734;2023-04-03T14:30:00;17.10;55.70
57652;DHT22;43480;53.116;6.734;2023-04-03T14:32:28;17.00;59.40
57652;DHT22;43480;53.116;6.734;2023-04-03T14:34:53;17.00;53.10
57652;DHT22;43480;53.116;6.734;2023-04-03T14:37:20;17.00;52.90
57652;DHT22;43480;53.116;6.734;2023-04-03T14:39:46;17.10;53.00
57652;DHT22;43480;53.116;6.734;2023-04-03T14:42:13;17.30;51.80
57652;DHT22;43480;53.116;6.734;2023-04-03T14:44:39;17.30;53.60
57652;DHT22;43480;53.116;6.734;2023-04-03T14:47:08;17.30;52.20
57652;DHT22;43480;53.116;6.734;2023-04-03T14:49:34;17.30;52.00
57652;DHT22;43480;53.116;6.734;2023-04-03T14:52:00;17.50;52.40
57652;DHT22;43480;53.116;6.734;2023-04-03T14:54:25;17.70;52.00
57652;DHT22;43480;53.116;6.734;2023-04-03T14:56:53;17.90;52.20
57652;DHT22;43480;53.116;6.734;2023-04-03T14:59:20;18.00;51.30
57652;DHT22;43480;53.116;6.734;2023-04-03T15:01:47;18.10;50.70
57652;DHT22;43480;53.116;6.734;2023-04-03T15:04:13;18.40;52.30
57652;DHT22;43480;53.116;6.734;2023-04-03T15:06:39;18.60;49.40
57652;DHT22;43480;53.116;6.734;2023-04-03T15:09:05;18.70;48.90
57652;DHT22;43480;53.116;6.734;2023-04-03T15:11:33;18.80;49.50
57652;DHT22;43480;53.116;6.734;2023-04-03T15:13:59;18.80;49.20
57652;DHT22;43480;53.116;6.734;2023-04-03T15:16:25;19.00;50.30
57652;DHT22;43480;53.116;6.734;2023-04-03T15:18:51;18.90;49.30
57652;DHT22;43480;53.116;6.734;2023-04-03T15:21:16;19.00;48.70
57652;DHT22;43480;53.116;6.734;2023-04-03T15:23:42;19.30;48.80
57652;DHT22;43480;53.116;6.734;2023-04-03T15:26:08;19.30;49.80
57652;DHT22;43480;53.116;6.734;2023-04-03T15:28:35;19.60;48.00
57652;DHT22;43480;53.116;6.734;2023-04-03T15:31:01;19.80;47.90
57652;DHT22;43480;53.116;6.734;2023-04-03T15:33:27;19.90;48.90
57652;DHT22;43480;53.116;6.734;2023-04-03T15:35:52;20.10;46.30
57652;DHT22;43480;53.116;6.734;2023-04-03T15:38:18;20.10;47.00
57652;DHT22;43480;53.116;6.734;2023-04-03T15:40:44;19.90;46.60
57652;DHT22;43480;53.116;6.734;2023-04-03T15:43:12;19.70;47.20
57652;DHT22;43480;53.116;6.734;2023-04-03T15:45:38;19.60;49.00
57652;DHT22;43480;53.116;6.734;2023-04-03T15:48:04;19.70;47.00
57652;DHT22;43480;53.116;6.734;2023-04-03T15:50:30;20.00;48.00
57652;DHT22;43480;53.116;6.734;2023-04-03T15:52:56;19.80;45.70
57652;DHT22;43480;53.116;6.734;2023-04-03T15:55:24;19.80;46.20
57652;DHT22;43480;53.116;6.734;2023-04-03T15:57:50;20.00;46.60
57652;DHT22;43480;53.116;6.734;2023-04-03T16:00:15;19.90;45.60
57652;DHT22;43480;53.116;6.734;2023-04-03T16:02:41;19.80;44.90
57652;DHT22;43480;53.116;6.734;2023-04-03T16:05:07;19.80;46.30
57652;DHT22;43480;53.116;6.734;2023-04-03T16:07:34;19.80;45.50
57652;DHT22;43480;53.116;6.734;2023-04-03T16:09:59;19.90;45.10
57652;DHT22;43480;53.116;6.734;2023-04-03T16:12:25;19.90;44.30
57652;DHT22;43480;53.116;6.734;2023-04-03T16:14:51;20.20;44.50
57652;DHT22;43480;53.116;6.734;2023-04-03T16:17:17;20.50;44.10
57652;DHT22;43480;53.116;6.734;2023-04-03T16:19:42;20.60;44.00
57652;DHT22;43480;53.116;6.734;2023-04-03T16:22:08;20.50;43.10
57652;DHT22;43480;53.116;6.734;2023-04-03T16:24:33;20.90;44.70
57652;DHT22;43480;53.116;6.734;2023-04-03T16:27:00;20.80;44.10
57652;DHT22;43480;53.116;6.734;2023-04-03T16:29:26;20.60;42.90
57652;DHT22;43480;53.116;6.734;2023-04-03T16:31:56;20.70;44.00
57652;DHT22;43480;53.116;6.734;2023-04-03T16:34:22;20.80;43.40
57652;DHT22;43480;53.116;6.734;2023-04-03T16:36:48;20.60;42.50
57652;DHT22;43480;53.116;6.734;2023-04-03T16:39:13;20.10;42.60
57652;DHT22;43480;53.116;6.734;2023-04-03T16:41:39;19.70;43.80
57652;DHT22;43480;53.116;6.734;2023-04-03T16:44:05;19.50;44.80
57652;DHT22;43480;53.116;6.734;2023-04-03T16:46:32;19.50;44.90
57652;DHT22;43480;53.116;6.734;2023-04-03T16:48:58;19.40;44.60
57652;DHT22;43480;53.116;6.734;2023-04-03T16:51:23;19.10;44.70
57652;DHT22;43480;53.116;6.734;2023-04-03T16:53:49;18.90;44.50
57652;DHT22;43480;53.116;6.734;2023-04-03T16:56:14;18.80;44.50
57652;DHT22;43480;53.116;6.734;2023-04-03T16:58:40;18.70;45.70
57652;DHT22;43480;53.116;6.734;2023-04-03T17:01:13;18.70;46.10
57652;DHT22;43480;53.116;6.734;2023-04-03T17:03:39;18.30;46.00
57652;DHT22;43480;53.116;6.734;2023-04-03T17:06:05;17.60;45.80
57652;DHT22;43480;53.116;6.734;2023-04-03T17:08:30;16.70;46.80
57652;DHT22;43480;53.116;6.734;2023-04-03T17:10:56;16.10;47.90
57652;DHT22;43480;53.116;6.734;2023-04-03T17:13:21;15.80;49.10
57652;DHT22;43480;53.116;6.734;2023-04-03T17:15:47;15.60;50.30
57652;DHT22;43480;53.116;6.734;2023-04-03T17:18:12;15.50;51.10
57652;DHT22;43480;53.116;6.734;2023-04-03T17:20:38;15.50;53.70
57652;DHT22;43480;53.116;6.734;2023-04-03T17:23:05;14.90;51.70
57652;DHT22;43480;53.116;6.734;2023-04-03T17:25:30;14.40;53.00
57652;DHT22;43480;53.116;6.734;2023-04-03T17:27:56;14.00;53.90